sensor_id;sensor_type;location;lat;lon;timestamp;P1;durP1;ratioP1;P2;durP2;ratioP2
5616;SDS011;2830;50.656;7.568;2024-03-06T00:00:12;16.45;;;10.23;;
5616;SDS011;2830;50.656;7.568;2024-03-06T00:02:39;16.75;;;10.48;;
5616;SDS011;2830;50.656;7.568;2024-03-06T00:05:06;14.73;;;9.38;;
5616;SDS011;2830;50.656;7.568;2024-03-06T00:07:35;13.77;;;9.35;;
5616;SDS011;2830;50.656;7.568;2024-03-06T00:10:02;15.18;;;9.63;;
5616;SDS011;2830;50.656;7.568;2024-03-06T00:12:33;12.35;;;8.93;;
5616;SDS011;2830;50.656;7.568;2024-03-06T00:15:00;13.95;;;8.25;;
5616;SDS011;2830;50.656;7.568;2024-03-06T00:17:28;14.90;;;9.82;;
5616;SDS011;2830;50.656;7.568;2024-03-06T00:19:55;18.35;;;9.52;;
5616;SDS011;2830;50.656;7.568;2024-03-06T00:22:22;14.20;;;9.32;;
5616;SDS011;2830;50.656;7.568;2024-03-06T00:24:50;15.32;;;10.10;;
5616;SDS011;2830;50.656;7.568;2024-03-06T00:27:17;15.45;;;10.23;;
5616;SDS011;2830;50.656;7.568;2024-03-06T00:29:44;20.33;;;14.07;;
5616;SDS011;2830;50.656;7.568;2024-03-06T00:32:11;17.83;;;11.95;;
5616;SDS011;2830;50.656;7.568;2024-03-06T00:34:39;19.08;;;11.90;;
5616;SDS011;2830;50.656;7.568;2024-03-06T00:37:06;21.48;;;12.32;;
5616;SDS011;2830;50.656;7.568;2024-03-06T00:39:33;22.83;;;11.68;;
5616;SDS011;2830;50.656;7.568;2024-03-06T00:41:59;18.77;;;12.60;;
5616;SDS011;2830;50.656;7.568;2024-03-06T00:44:26;18.00;;;12.13;;
5616;SDS011;2830;50.656;7.568;2024-03-06T00:46:53;14.63;;;11.20;;
5616;SDS011;2830;50.656;7.568;2024-03-06T00:49:20;16.83;;;12.55;;
5616;SDS011;2830;50.656;7.568;2024-03-06T00:51:47;16.33;;;11.05;;
5616;SDS011;2830;50.656;7.568;2024-03-06T00:54:15;21.90;;;11.32;;
5616;SDS011;2830;50.656;7.568;2024-03-06T00:56:43;16.77;;;11.80;;
5616;SDS011;2830;50.656;7.568;2024-03-06T00:59:10;17.38;;;11.43;;
5616;SDS011;2830;50.656;7.568;2024-03-06T01:01:37;19.05;;;10.60;;
5616;SDS011;2830;50.656;7.568;2024-03-06T01:04:04;19.10;;;10.80;;
5616;SDS011;2830;50.656;7.568;2024-03-06T01:06:31;15.77;;;11.40;;
5616;SDS011;2830;50.656;7.568;2024-03-06T01:08:58;17.10;;;12.23;;
5616;SDS011;2830;50.656;7.568;2024-03-06T01:11:25;17.77;;;11.55;;
5616;SDS011;2830;50.656;7.568;2024-03-06T01:13:55;16.02;;;11.70;;
5616;SDS011;2830;50.656;7.568;2024-03-06T01:16:22;18.75;;;12.25;;
5616;SDS011;2830;50.656;7.568;2024-03-06T01:18:48;19.40;;;10.82;;
5616;SDS011;2830;50.656;7.568;2024-03-06T01:21:15;22.20;;;12.23;;
5616;SDS011;2830;50.656;7.568;2024-03-06T01:23:42;18.75;;;11.98;;
5616;SDS011;2830;50.656;7.568;2024-03-06T01:26:09;16.10;;;11.60;;
5616;SDS011;2830;50.656;7.568;2024-03-06T01:28:38;17.85;;;10.80;;
5616;SDS011;2830;50.656;7.568;2024-03-06T01:31:05;15.30;;;10.43;;
5616;SDS011;2830;50.656;7.568;2024-03-06T01:33:33;16.05;;;10.50;;
5616;SDS011;2830;50.656;7.568;2024-03-06T01:35:59;18.38;;;12.00;;
5616;SDS011;2830;50.656;7.568;2024-03-06T01:38:27;18.75;;;11.88;;
5616;SDS011;2830;50.656;7.568;2024-03-06T01:40:53;17.98;;;11.20;;
5616;SDS011;2830;50.656;7.568;2024-03-06T01:43:21;22.95;;;11.73;;
5616;SDS011;2830;50.656;7.568;2024-03-06T01:45:50;28.48;;;13.93;;
5616;SDS011;2830;50.656;7.568;2024-03-06T01:48:26;27.33;;;12.95;;
5616;SDS011;2830;50.656;7.568;2024-03-06T01:50:55;25.67;;;12.98;;
5616;SDS011;2830;50.656;7.568;2024-03-06T01:53:24;31.27;;;14.80;;
5616;SDS011;2830;50.656;7.568;2024-03-06T01:55:52;25.00;;;14.23;;
5616;SDS011;2830;50.656;7.568;2024-03-06T01:58:19;28.20;;;14.38;;
5616;SDS011;2830;50.656;7.568;2024-03-06T02:00:48;23.38;;;13.05;;
5616;SDS011;2830;50.656;7.568;2024-03-06T02:03:17;22.40;;;13.40;;
5616;SDS011;2830;50.656;7.568;2024-03-06T02:05:46;28.73;;;14.05;;
5616;SDS011;2830;50.656;7.568;2024-03-06T02:08:15;22.55;;;14.02;;
5616;SDS011;2830;50.656;7.568;2024-03-06T02:10:43;25.25;;;13.48;;
5616;SDS011;2830;50.656;7.568;2024-03-06T02:13:11;34.88;;;14.95;;
5616;SDS011;2830;50.656;7.568;2024-03-06T02:15:39;37.22;;;14.93;;
5616;SDS011;2830;50.656;7.568;2024-03-06T02:18:06;22.65;;;13.38;;
5616;SDS011;2830;50.656;7.568;2024-03-06T02:20:37;20.65;;;13.38;;
5616;SDS011;2830;50.656;7.568;2024-03-06T02:23:06;27.75;;;14.98;;
5616;SDS011;2830;50.656;7.568;2024-03-06T02:25:34;18.67;;;12.90;;
5616;SDS011;2830;50.656;7.568;2024-03-06T02:28:01;44.28;;;13.43;;
5616;SDS011;2830;50.656;7.568;2024-03-06T02:30:28;19.90;;;12.90;;
5616;SDS011;2830;50.656;7.568;2024-03-06T02:32:57;36.83;;;14.52;;
5616;SDS011;2830;50.656;7.568;2024-03-06T02:35:24;27.40;;;11.88;;
5616;SDS011;2830;50.656;7.568;2024-03-06T02:37:51;22.98;;;12.05;;
5616;SDS011;2830;50.656;7.568;2024-03-06T02:40:18;19.60;;;12.00;;
5616;SDS011;2830;50.656;7.568;2024-03-06T02:42:45;44.10;;;13.43;;
5616;SDS011;2830;50.656;7.568;2024-03-06T02:45:12;26.80;;;11.60;;
5616;SDS011;2830;50.656;7.568;2024-03-06T02:47:39;43.67;;;12.75;;
5616;SDS011;2830;50.656;7.568;2024-03-06T02:50:07;21.25;;;11.70;;
5616;SDS011;2830;50.656;7.568;2024-03-06T02:52:34;31.15;;;11.93;;
5616;SDS011;2830;50.656;7.568;2024-03-06T02:55:01;56.03;;;13.35;;
5616;SDS011;2830;50.656;7.568;2024-03-06T02:57:28;30.83;;;10.18;;
5616;SDS011;2830;50.656;7.568;2024-03-06T02:59:55;29.77;;;11.55;;
5616;SDS011;2830;50.656;7.568;2024-03-06T03:02:23;56.42;;;13.65;;
5616;SDS011;2830;50.656;7.568;2024-03-06T03:04:50;30.45;;;10.73;;
5616;SDS011;2830;50.656;7.568;2024-03-06T03:07:18;66.65;;;12.30;;
5616;SDS011;2830;50.656;7.568;2024-03-06T03:09:49;21.40;;;10.57;;
5616;SDS011;2830;50.656;7.568;2024-03-06T03:12:16;26.02;;;11.63;;
5616;SDS011;2830;50.656;7.568;2024-03-06T03:14:43;24.45;;;11.15;;
5616;SDS011;2830;50.656;7.568;2024-03-06T03:17:10;13.77;;;10.27;;
5616;SDS011;2830;50.656;7.568;2024-03-06T03:19:37;40.30;;;11.27;;
5616;SDS011;2830;50.656;7.568;2024-03-06T03:22:06;16.05;;;11.00;;
5616;SDS011;2830;50.656;7.568;2024-03-06T03:24:35;27.48;;;12.05;;
5616;SDS011;2830;50.656;7.568;2024-03-06T03:27:03;21.10;;;11.60;;
5616;SDS011;2830;50.656;7.568;2024-03-06T03:29:30;25.52;;;11.85;;
5616;SDS011;2830;50.656;7.568;2024-03-06T03:31:57;19.52;;;10.52;;
5616;SDS011;2830;50.656;7.568;2024-03-06T03:34:24;16.23;;;9.93;;
5616;SDS011;2830;50.656;7.568;2024-03-06T03:36:50;27.70;;;11.10;;
5616;SDS011;2830;50.656;7.568;2024-03-06T03:39:17;11.77;;;9.05;;
5616;SDS011;2830;50.656;7.568;2024-03-06T03:41:47;14.20;;;8.93;;
5616;SDS011;2830;50.656;7.568;2024-03-06T03:44:15;19.02;;;11.10;;
5616;SDS011;2830;50.656;7.568;2024-03-06T03:46:43;19.35;;;10.90;;
5616;SDS011;2830;50.656;7.568;2024-03-06T03:49:11;30.95;;;11.13;;
5616;SDS011;2830;50.656;7.568;2024-03-06T03:51:38;30.63;;;12.13;;
5616;SDS011;2830;50.656;7.568;2024-03-06T03:54:05;30.02;;;11.65;;
5616;SDS011;2830;50.656;7.568;2024-03-06T03:56:33;21.00;;;11.40;;
5616;SDS011;2830;50.656;7.568;2024-03-06T03:59:01;22.00;;;11.95;;
5616;SDS011;2830;50.656;7.568;2024-03-06T04:01:29;19.52;;;10.68;;
5616;SDS011;2830;50.656;7.568;2024-03-06T04:03:56;22.23;;;10.70;;
5616;SDS011;2830;50.656;7.568;2024-03-06T04:06:23;16.27;;;10.80;;
5616;SDS011;2830;50.656;7.568;2024-03-06T04:08:50;17.00;;;11.10;;
5616;SDS011;2830;50.656;7.568;2024-03-06T04:11:17;17.25;;;11.27;;
5616;SDS011;2830;50.656;7.568;2024-03-06T04:13:44;27.80;;;12.27;;
5616;SDS011;2830;50.656;7.568;2024-03-06T04:16:16;25.95;;;10.60;;
5616;SDS011;2830;50.656;7.568;2024-03-06T04:18:44;22.85;;;10.20;;
5616;SDS011;2830;50.656;7.568;2024-03-06T04:21:12;31.17;;;10.65;;
5616;SDS011;2830;50.656;7.568;2024-03-06T04:23:40;21.75;;;10.30;;
5616;SDS011;2830;50.656;7.568;2024-03-06T04:26:07;15.75;;;10.57;;
5616;SDS011;2830;50.656;7.568;2024-03-06T04:28:34;12.35;;;8.98;;
5616;SDS011;2830;50.656;7.568;2024-03-06T04:31:01;25.20;;;10.73;;
5616;SDS011;2830;50.656;7.568;2024-03-06T04:33:28;15.35;;;10.00;;
5616;SDS011;2830;50.656;7.568;2024-03-06T04:35:55;17.65;;;9.05;;
5616;SDS011;2830;50.656;7.568;2024-03-06T04:38:22;25.80;;;11.10;;
5616;SDS011;2830;50.656;7.568;2024-03-06T04:40:49;30.02;;;10.18;;
5616;SDS011;2830;50.656;7.568;2024-03-06T04:43:16;27.38;;;11.27;;
5616;SDS011;2830;50.656;7.568;2024-03-06T04:45:43;13.38;;;9.57;;
5616;SDS011;2830;50.656;7.568;2024-03-06T04:48:10;26.17;;;10.75;;
5616;SDS011;2830;50.656;7.568;2024-03-06T04:50:38;24.83;;;11.32;;
5616;SDS011;2830;50.656;7.568;2024-03-06T04:53:05;14.10;;;10.27;;
5616;SDS011;2830;50.656;7.568;2024-03-06T04:55:32;13.13;;;9.10;;
5616;SDS011;2830;50.656;7.568;2024-03-06T04:57:59;15.55;;;10.50;;
5616;SDS011;2830;50.656;7.568;2024-03-06T05:00:26;12.45;;;8.98;;
5616;SDS011;2830;50.656;7.568;2024-03-06T05:02:53;16.75;;;9.32;;
5616;SDS011;2830;50.656;7.568;2024-03-06T05:05:39;26.35;;;10.43;;
5616;SDS011;2830;50.656;7.568;2024-03-06T05:08:23;15.35;;;10.00;;
5616;SDS011;2830;50.656;7.568;2024-03-06T05:11:07;14.02;;;9.48;;
5616;SDS011;2830;50.656;7.568;2024-03-06T05:13:52;15.25;;;8.98;;
5616;SDS011;2830;50.656;7.568;2024-03-06T05:16:36;25.50;;;10.27;;
5616;SDS011;2830;50.656;7.568;2024-03-06T05:19:20;32.05;;;9.15;;
5616;SDS011;2830;50.656;7.568;2024-03-06T05:22:04;33.03;;;9.63;;
5616;SDS011;2830;50.656;7.568;2024-03-06T05:24:49;29.17;;;9.05;;
5616;SDS011;2830;50.656;7.568;2024-03-06T05:27:33;23.88;;;8.68;;
5616;SDS011;2830;50.656;7.568;2024-03-06T05:30:17;14.27;;;8.82;;
5616;SDS011;2830;50.656;7.568;2024-03-06T05:33:01;23.23;;;8.10;;
5616;SDS011;2830;50.656;7.568;2024-03-06T05:35:46;10.75;;;7.72;;
5616;SDS011;2830;50.656;7.568;2024-03-06T05:38:30;24.55;;;8.98;;
5616;SDS011;2830;50.656;7.568;2024-03-06T05:41:14;16.83;;;8.77;;
5616;SDS011;2830;50.656;7.568;2024-03-06T05:43:59;16.73;;;8.02;;
5616;SDS011;2830;50.656;7.568;2024-03-06T05:46:43;10.57;;;7.60;;
5616;SDS011;2830;50.656;7.568;2024-03-06T05:49:27;20.90;;;8.30;;
5616;SDS011;2830;50.656;7.568;2024-03-06T05:52:12;11.73;;;8.90;;
5616;SDS011;2830;50.656;7.568;2024-03-06T05:54:56;11.57;;;8.77;;
5616;SDS011;2830;50.656;7.568;2024-03-06T05:57:41;19.52;;;8.15;;
5616;SDS011;2830;50.656;7.568;2024-03-06T06:00:29;16.60;;;8.57;;
5616;SDS011;2830;50.656;7.568;2024-03-06T06:02:57;17.10;;;9.75;;
5616;SDS011;2830;50.656;7.568;2024-03-06T06:05:23;11.88;;;9.55;;
5616;SDS011;2830;50.656;7.568;2024-03-06T06:07:51;25.67;;;8.40;;
5616;SDS011;2830;50.656;7.568;2024-03-06T06:10:18;19.42;;;9.48;;
5616;SDS011;2830;50.656;7.568;2024-03-06T06:12:47;20.10;;;8.05;;
5616;SDS011;2830;50.656;7.568;2024-03-06T06:15:15;15.93;;;8.98;;
5616;SDS011;2830;50.656;7.568;2024-03-06T06:17:42;23.65;;;10.48;;
5616;SDS011;2830;50.656;7.568;2024-03-06T06:20:11;18.08;;;9.45;;
5616;SDS011;2830;50.656;7.568;2024-03-06T06:22:42;11.88;;;7.50;;
5616;SDS011;2830;50.656;7.568;2024-03-06T06:25:10;16.60;;;8.70;;
5616;SDS011;2830;50.656;7.568;2024-03-06T06:27:37;16.60;;;9.27;;
5616;SDS011;2830;50.656;7.568;2024-03-06T06:30:05;27.70;;;8.88;;
5616;SDS011;2830;50.656;7.568;2024-03-06T06:32:38;32.15;;;9.18;;
5616;SDS011;2830;50.656;7.568;2024-03-06T06:35:07;14.30;;;9.25;;
5616;SDS011;2830;50.656;7.568;2024-03-06T06:37:35;21.92;;;8.75;;
5616;SDS011;2830;50.656;7.568;2024-03-06T06:40:02;15.32;;;8.70;;
5616;SDS011;2830;50.656;7.568;2024-03-06T06:42:34;20.75;;;9.13;;
5616;SDS011;2830;50.656;7.568;2024-03-06T06:45:02;19.25;;;8.93;;
5616;SDS011;2830;50.656;7.568;2024-03-06T06:47:29;16.42;;;10.60;;
5616;SDS011;2830;50.656;7.568;2024-03-06T06:49:57;28.98;;;10.05;;
5616;SDS011;2830;50.656;7.568;2024-03-06T06:52:23;13.65;;;9.20;;
5616;SDS011;2830;50.656;7.568;2024-03-06T06:54:54;15.95;;;9.02;;
5616;SDS011;2830;50.656;7.568;2024-03-06T06:57:22;14.55;;;8.13;;
5616;SDS011;2830;50.656;7.568;2024-03-06T06:59:48;20.13;;;8.48;;
5616;SDS011;2830;50.656;7.568;2024-03-06T07:02:16;17.20;;;8.88;;
5616;SDS011;2830;50.656;7.568;2024-03-06T07:04:43;14.75;;;8.93;;
5616;SDS011;2830;50.656;7.568;2024-03-06T07:07:10;17.48;;;8.50;;
5616;SDS011;2830;50.656;7.568;2024-03-06T07:09:37;18.00;;;9.25;;
5616;SDS011;2830;50.656;7.568;2024-03-06T07:12:04;11.52;;;8.25;;
5616;SDS011;2830;50.656;7.568;2024-03-06T07:14:31;22.55;;;9.15;;
5616;SDS011;2830;50.656;7.568;2024-03-06T07:16:58;14.98;;;9.15;;
5616;SDS011;2830;50.656;7.568;2024-03-06T07:19:25;12.15;;;7.70;;
5616;SDS011;2830;50.656;7.568;2024-03-06T07:21:52;18.02;;;10.68;;
5616;SDS011;2830;50.656;7.568;2024-03-06T07:24:19;31.85;;;10.52;;
5616;SDS011;2830;50.656;7.568;2024-03-06T07:26:46;14.75;;;8.57;;
5616;SDS011;2830;50.656;7.568;2024-03-06T07:29:13;24.00;;;10.27;;
5616;SDS011;2830;50.656;7.568;2024-03-06T07:31:43;14.15;;;8.50;;
5616;SDS011;2830;50.656;7.568;2024-03-06T07:34:13;16.65;;;8.80;;
5616;SDS011;2830;50.656;7.568;2024-03-06T07:36:41;16.30;;;9.60;;
5616;SDS011;2830;50.656;7.568;2024-03-06T07:39:08;13.73;;;9.93;;
5616;SDS011;2830;50.656;7.568;2024-03-06T07:41:35;16.05;;;9.48;;
5616;SDS011;2830;50.656;7.568;2024-03-06T07:44:02;11.95;;;8.40;;
5616;SDS011;2830;50.656;7.568;2024-03-06T07:46:29;12.10;;;8.80;;
5616;SDS011;2830;50.656;7.568;2024-03-06T07:48:57;11.73;;;9.20;;
5616;SDS011;2830;50.656;7.568;2024-03-06T07:51:23;14.45;;;10.23;;
5616;SDS011;2830;50.656;7.568;2024-03-06T07:53:50;15.00;;;10.50;;
5616;SDS011;2830;50.656;7.568;2024-03-06T07:56:18;23.90;;;9.55;;
5616;SDS011;2830;50.656;7.568;2024-03-06T07:58:45;14.30;;;10.65;;
5616;SDS011;2830;50.656;7.568;2024-03-06T08:01:12;18.42;;;10.55;;
5616;SDS011;2830;50.656;7.568;2024-03-06T08:03:40;18.05;;;9.85;;
5616;SDS011;2830;50.656;7.568;2024-03-06T08:06:10;19.13;;;12.80;;
5616;SDS011;2830;50.656;7.568;2024-03-06T08:08:39;17.42;;;12.38;;
5616;SDS011;2830;50.656;7.568;2024-03-06T08:11:07;14.38;;;10.63;;
5616;SDS011;2830;50.656;7.568;2024-03-06T08:13:37;16.70;;;11.33;;
5616;SDS011;2830;50.656;7.568;2024-03-06T08:16:05;15.57;;;11.75;;
5616;SDS011;2830;50.656;7.568;2024-03-06T08:18:33;16.47;;;11.73;;
5616;SDS011;2830;50.656;7.568;2024-03-06T08:21:01;17.20;;;11.80;;
5616;SDS011;2830;50.656;7.568;2024-03-06T08:23:29;15.10;;;10.60;;
5616;SDS011;2830;50.656;7.568;2024-03-06T08:25:57;14.53;;;10.50;;
5616;SDS011;2830;50.656;7.568;2024-03-06T08:28:23;15.57;;;10.43;;
5616;SDS011;2830;50.656;7.568;2024-03-06T08:30:50;17.20;;;11.77;;
5616;SDS011;2830;50.656;7.568;2024-03-06T08:33:18;14.27;;;8.90;;
5616;SDS011;2830;50.656;7.568;2024-03-06T08:35:47;13.10;;;8.93;;
5616;SDS011;2830;50.656;7.568;2024-03-06T08:38:15;18.97;;;10.50;;
5616;SDS011;2830;50.656;7.568;2024-03-06T08:40:43;14.47;;;9.90;;
5616;SDS011;2830;50.656;7.568;2024-03-06T08:43:14;15.67;;;10.77;;
5616;SDS011;2830;50.656;7.568;2024-03-06T08:45:42;15.87;;;10.30;;
5616;SDS011;2830;50.656;7.568;2024-03-06T08:48:09;16.77;;;10.90;;
5616;SDS011;2830;50.656;7.568;2024-03-06T08:50:38;20.40;;;9.77;;
5616;SDS011;2830;50.656;7.568;2024-03-06T08:53:05;17.17;;;10.97;;
5616;SDS011;2830;50.656;7.568;2024-03-06T08:55:32;16.80;;;10.27;;
5616;SDS011;2830;50.656;7.568;2024-03-06T08:57:59;17.20;;;10.73;;
5616;SDS011;2830;50.656;7.568;2024-03-06T09:00:28;17.00;;;10.80;;
5616;SDS011;2830;50.656;7.568;2024-03-06T09:02:55;16.03;;;10.80;;
5616;SDS011;2830;50.656;7.568;2024-03-06T09:05:22;19.23;;;10.83;;
5616;SDS011;2830;50.656;7.568;2024-03-06T09:07:49;17.37;;;10.43;;
5616;SDS011;2830;50.656;7.568;2024-03-06T09:10:18;16.10;;;10.50;;
5616;SDS011;2830;50.656;7.568;2024-03-06T09:12:45;17.43;;;11.20;;
5616;SDS011;2830;50.656;7.568;2024-03-06T09:15:14;17.30;;;10.80;;
5616;SDS011;2830;50.656;7.568;2024-03-06T09:17:41;16.97;;;12.10;;
5616;SDS011;2830;50.656;7.568;2024-03-06T09:20:08;16.53;;;11.43;;
5616;SDS011;2830;50.656;7.568;2024-03-06T09:22:41;17.43;;;11.17;;
5616;SDS011;2830;50.656;7.568;2024-03-06T09:25:09;18.70;;;11.03;;
5616;SDS011;2830;50.656;7.568;2024-03-06T09:27:38;17.03;;;11.50;;
5616;SDS011;2830;50.656;7.568;2024-03-06T09:30:06;17.60;;;10.50;;
5616;SDS011;2830;50.656;7.568;2024-03-06T09:32:35;18.60;;;11.27;;
5616;SDS011;2830;50.656;7.568;2024-03-06T09:35:02;18.57;;;10.73;;
5616;SDS011;2830;50.656;7.568;2024-03-06T09:37:29;17.27;;;10.20;;
5616;SDS011;2830;50.656;7.568;2024-03-06T09:39:56;17.33;;;10.73;;
5616;SDS011;2830;50.656;7.568;2024-03-06T09:42:23;16.63;;;10.23;;
5616;SDS011;2830;50.656;7.568;2024-03-06T09:44:50;17.07;;;10.77;;
5616;SDS011;2830;50.656;7.568;2024-03-06T09:47:19;20.23;;;11.60;;
5616;SDS011;2830;50.656;7.568;2024-03-06T09:49:52;16.83;;;11.00;;
5616;SDS011;2830;50.656;7.568;2024-03-06T09:52:23;19.70;;;10.90;;
5616;SDS011;2830;50.656;7.568;2024-03-06T09:54:54;15.50;;;10.13;;
5616;SDS011;2830;50.656;7.568;2024-03-06T09:57:22;19.50;;;10.70;;
5616;SDS011;2830;50.656;7.568;2024-03-06T09:59:49;15.30;;;10.00;;
5616;SDS011;2830;50.656;7.568;2024-03-06T10:02:18;20.93;;;10.97;;
5616;SDS011;2830;50.656;7.568;2024-03-06T10:05:04;16.53;;;10.87;;
5616;SDS011;2830;50.656;7.568;2024-03-06T10:07:32;15.80;;;10.20;;
5616;SDS011;2830;50.656;7.568;2024-03-06T10:09:59;17.73;;;11.00;;
5616;SDS011;2830;50.656;7.568;2024-03-06T10:12:26;18.50;;;10.33;;
5616;SDS011;2830;50.656;7.568;2024-03-06T10:14:56;17.73;;;10.10;;
5616;SDS011;2830;50.656;7.568;2024-03-06T10:17:24;16.30;;;10.17;;
5616;SDS011;2830;50.656;7.568;2024-03-06T10:19:54;15.17;;;9.17;;
5616;SDS011;2830;50.656;7.568;2024-03-06T10:22:22;16.97;;;10.40;;
5616;SDS011;2830;50.656;7.568;2024-03-06T10:24:54;15.80;;;9.63;;
5616;SDS011;2830;50.656;7.568;2024-03-06T10:27:22;18.60;;;10.50;;
5616;SDS011;2830;50.656;7.568;2024-03-06T10:30:02;17.83;;;9.47;;
5616;SDS011;2830;50.656;7.568;2024-03-06T10:32:32;14.07;;;9.30;;
5616;SDS011;2830;50.656;7.568;2024-03-06T10:34:59;19.23;;;10.90;;
5616;SDS011;2830;50.656;7.568;2024-03-06T10:37:26;14.43;;;9.00;;
5616;SDS011;2830;50.656;7.568;2024-03-06T10:39:55;13.60;;;9.13;;
5616;SDS011;2830;50.656;7.568;2024-03-06T10:42:28;14.13;;;8.83;;
5616;SDS011;2830;50.656;7.568;2024-03-06T10:44:56;14.60;;;9.40;;
5616;SDS011;2830;50.656;7.568;2024-03-06T10:47:26;13.50;;;9.43;;
5616;SDS011;2830;50.656;7.568;2024-03-06T10:49:54;16.33;;;10.37;;
5616;SDS011;2830;50.656;7.568;2024-03-06T10:52:25;17.07;;;10.00;;
5616;SDS011;2830;50.656;7.568;2024-03-06T10:54:53;16.10;;;10.17;;
5616;SDS011;2830;50.656;7.568;2024-03-06T10:57:22;14.53;;;9.00;;
5616;SDS011;2830;50.656;7.568;2024-03-06T10:59:51;19.73;;;10.53;;
5616;SDS011;2830;50.656;7.568;2024-03-06T11:02:19;19.33;;;11.53;;
5616;SDS011;2830;50.656;7.568;2024-03-06T11:04:49;16.53;;;9.70;;
5616;SDS011;2830;50.656;7.568;2024-03-06T11:07:18;14.83;;;10.00;;
5616;SDS011;2830;50.656;7.568;2024-03-06T11:09:45;18.03;;;9.97;;
5616;SDS011;2830;50.656;7.568;2024-03-06T11:15:09;16.63;;;9.60;;
5616;SDS011;2830;50.656;7.568;2024-03-06T11:17:40;16.67;;;10.00;;
5616;SDS011;2830;50.656;7.568;2024-03-06T11:20:08;15.37;;;8.87;;
5616;SDS011;2830;50.656;7.568;2024-03-06T11:28:19;14.33;;;9.10;;
5616;SDS011;2830;50.656;7.568;2024-03-06T11:31:03;17.50;;;9.60;;
5616;SDS011;2830;50.656;7.568;2024-03-06T11:33:39;14.70;;;9.73;;
5616;SDS011;2830;50.656;7.568;2024-03-06T11:39:03;14.13;;;9.00;;
5616;SDS011;2830;50.656;7.568;2024-03-06T11:44:17;17.33;;;10.20;;
5616;SDS011;2830;50.656;7.568;2024-03-06T11:46:56;13.47;;;9.00;;
5616;SDS011;2830;50.656;7.568;2024-03-06T11:49:23;15.93;;;9.47;;
5616;SDS011;2830;50.656;7.568;2024-03-06T11:51:52;11.50;;;7.93;;
5616;SDS011;2830;50.656;7.568;2024-03-06T11:54:20;14.17;;;8.80;;
5616;SDS011;2830;50.656;7.568;2024-03-06T11:56:52;12.13;;;8.23;;
5616;SDS011;2830;50.656;7.568;2024-03-06T11:59:25;19.57;;;10.93;;
5616;SDS011;2830;50.656;7.568;2024-03-06T12:01:57;15.93;;;10.07;;
5616;SDS011;2830;50.656;7.568;2024-03-06T12:04:28;15.10;;;8.63;;
5616;SDS011;2830;50.656;7.568;2024-03-06T12:06:57;15.60;;;9.17;;
5616;SDS011;2830;50.656;7.568;2024-03-06T12:09:36;13.90;;;9.07;;
5616;SDS011;2830;50.656;7.568;2024-03-06T12:12:08;15.90;;;9.73;;
5616;SDS011;2830;50.656;7.568;2024-03-06T12:14:36;13.60;;;8.93;;
5616;SDS011;2830;50.656;7.568;2024-03-06T12:17:06;13.40;;;8.93;;
5616;SDS011;2830;50.656;7.568;2024-03-06T12:19:37;13.97;;;9.07;;
5616;SDS011;2830;50.656;7.568;2024-03-06T12:22:04;12.80;;;8.70;;
5616;SDS011;2830;50.656;7.568;2024-03-06T12:24:31;13.57;;;8.50;;
5616;SDS011;2830;50.656;7.568;2024-03-06T12:27:02;12.07;;;8.90;;
5616;SDS011;2830;50.656;7.568;2024-03-06T12:29:31;14.77;;;7.97;;
5616;SDS011;2830;50.656;7.568;2024-03-06T12:31:59;13.10;;;8.60;;
5616;SDS011;2830;50.656;7.568;2024-03-06T12:34:27;10.87;;;7.60;;
5616;SDS011;2830;50.656;7.568;2024-03-06T12:36:54;11.40;;;7.47;;
5616;SDS011;2830;50.656;7.568;2024-03-06T12:39:21;8.80;;;6.30;;
5616;SDS011;2830;50.656;7.568;2024-03-06T12:41:50;9.93;;;5.97;;
5616;SDS011;2830;50.656;7.568;2024-03-06T12:44:21;9.47;;;5.53;;
5616;SDS011;2830;50.656;7.568;2024-03-06T12:46:48;12.10;;;8.10;;
5616;SDS011;2830;50.656;7.568;2024-03-06T12:49:15;12.13;;;7.60;;
5616;SDS011;2830;50.656;7.568;2024-03-06T12:51:44;10.93;;;7.47;;
5616;SDS011;2830;50.656;7.568;2024-03-06T12:54:11;9.67;;;6.17;;
5616;SDS011;2830;50.656;7.568;2024-03-06T12:56:38;11.80;;;8.00;;
5616;SDS011;2830;50.656;7.568;2024-03-06T12:59:06;8.80;;;5.93;;
5616;SDS011;2830;50.656;7.568;2024-03-06T13:01:35;12.80;;;6.00;;
5616;SDS011;2830;50.656;7.568;2024-03-06T13:04:02;10.47;;;6.70;;
5616;SDS011;2830;50.656;7.568;2024-03-06T13:06:32;9.43;;;5.97;;
5616;SDS011;2830;50.656;7.568;2024-03-06T13:08:59;10.80;;;6.20;;
5616;SDS011;2830;50.656;7.568;2024-03-06T13:11:26;11.80;;;7.80;;
5616;SDS011;2830;50.656;7.568;2024-03-06T13:13:53;8.37;;;5.00;;
5616;SDS011;2830;50.656;7.568;2024-03-06T13:16:20;8.23;;;3.70;;
5616;SDS011;2830;50.656;7.568;2024-03-06T13:18:48;6.53;;;4.00;;
5616;SDS011;2830;50.656;7.568;2024-03-06T13:21:21;9.30;;;5.40;;
5616;SDS011;2830;50.656;7.568;2024-03-06T13:23:48;8.70;;;4.50;;
5616;SDS011;2830;50.656;7.568;2024-03-06T13:26:15;17.87;;;6.40;;
5616;SDS011;2830;50.656;7.568;2024-03-06T13:28:44;9.90;;;5.80;;
5616;SDS011;2830;50.656;7.568;2024-03-06T13:31:12;6.90;;;4.70;;
5616;SDS011;2830;50.656;7.568;2024-03-06T13:33:39;9.90;;;5.87;;
5616;SDS011;2830;50.656;7.568;2024-03-06T13:36:06;8.00;;;4.37;;
5616;SDS011;2830;50.656;7.568;2024-03-06T13:38:34;7.37;;;4.07;;
5616;SDS011;2830;50.656;7.568;2024-03-06T13:41:01;7.13;;;5.00;;
5616;SDS011;2830;50.656;7.568;2024-03-06T13:43:29;9.07;;;4.00;;
5616;SDS011;2830;50.656;7.568;2024-03-06T13:45:56;7.90;;;4.90;;
5616;SDS011;2830;50.656;7.568;2024-03-06T13:48:23;10.17;;;4.57;;
5616;SDS011;2830;50.656;7.568;2024-03-06T13:50:50;10.40;;;4.00;;
5616;SDS011;2830;50.656;7.568;2024-03-06T13:53:17;8.63;;;4.97;;
5616;SDS011;2830;50.656;7.568;2024-03-06T13:55:44;7.50;;;5.00;;
5616;SDS011;2830;50.656;7.568;2024-03-06T13:58:11;8.37;;;4.27;;
5616;SDS011;2830;50.656;7.568;2024-03-06T14:00:38;7.70;;;5.03;;
5616;SDS011;2830;50.656;7.568;2024-03-06T14:03:05;8.50;;;5.07;;
5616;SDS011;2830;50.656;7.568;2024-03-06T14:05:32;8.00;;;5.23;;
5616;SDS011;2830;50.656;7.568;2024-03-06T14:07:59;9.97;;;5.00;;
5616;SDS011;2830;50.656;7.568;2024-03-06T14:10:26;7.60;;;5.27;;
5616;SDS011;2830;50.656;7.568;2024-03-06T14:12:53;8.67;;;5.53;;
5616;SDS011;2830;50.656;7.568;2024-03-06T14:15:21;9.50;;;6.47;;
5616;SDS011;2830;50.656;7.568;2024-03-06T14:17:50;8.93;;;5.13;;
5616;SDS011;2830;50.656;7.568;2024-03-06T14:20:17;11.23;;;6.70;;
5616;SDS011;2830;50.656;7.568;2024-03-06T14:22:44;9.73;;;5.53;;
5616;SDS011;2830;50.656;7.568;2024-03-06T14:25:11;12.00;;;6.13;;
5616;SDS011;2830;50.656;7.568;2024-03-06T14:27:39;13.90;;;6.50;;
5616;SDS011;2830;50.656;7.568;2024-03-06T14:30:06;13.30;;;6.80;;
5616;SDS011;2830;50.656;7.568;2024-03-06T14:32:34;9.23;;;5.43;;
5616;SDS011;2830;50.656;7.568;2024-03-06T14:35:02;8.90;;;5.03;;
5616;SDS011;2830;50.656;7.568;2024-03-06T14:37:29;8.30;;;5.23;;
5616;SDS011;2830;50.656;7.568;2024-03-06T14:39:56;8.83;;;5.17;;
5616;SDS011;2830;50.656;7.568;2024-03-06T14:42:25;9.90;;;5.80;;
5616;SDS011;2830;50.656;7.568;2024-03-06T14:44:52;10.00;;;5.10;;
5616;SDS011;2830;50.656;7.568;2024-03-06T14:47:19;8.70;;;4.80;;
5616;SDS011;2830;50.656;7.568;2024-03-06T14:49:45;10.10;;;5.20;;
5616;SDS011;2830;50.656;7.568;2024-03-06T14:52:12;7.57;;;4.87;;
5616;SDS011;2830;50.656;7.568;2024-03-06T14:54:40;8.53;;;4.87;;
5616;SDS011;2830;50.656;7.568;2024-03-06T14:57:10;8.50;;;4.50;;
5616;SDS011;2830;50.656;7.568;2024-03-06T14:59:38;7.43;;;4.70;;
5616;SDS011;2830;50.656;7.568;2024-03-06T15:02:05;10.30;;;5.97;;
5616;SDS011;2830;50.656;7.568;2024-03-06T15:04:33;7.30;;;4.97;;
5616;SDS011;2830;50.656;7.568;2024-03-06T15:06:59;9.67;;;5.10;;
5616;SDS011;2830;50.656;7.568;2024-03-06T15:09:27;9.20;;;5.17;;
5616;SDS011;2830;50.656;7.568;2024-03-06T15:11:54;8.27;;;5.53;;
5616;SDS011;2830;50.656;7.568;2024-03-06T15:14:23;8.83;;;4.63;;
5616;SDS011;2830;50.656;7.568;2024-03-06T15:16:50;6.43;;;4.63;;
5616;SDS011;2830;50.656;7.568;2024-03-06T15:19:17;8.73;;;5.53;;